JAL799 RJAA-RPLL
Flight info
| Callsign | JAL799 |
|---|---|
| Flight time | N/A |
| Altitude | 38000 |
| Route | SAMUS Y84 BUBDO A590 MUPOB DCT KANDU DCT POLIO POLIO5R |
| Aircraft | A339/H-SADE1E2E3GHIJ3J5M1P2RWXY/LB2D1 |
Departure
| Time | 2026-05-07 06:49 |
|---|---|
| Airport | Narita International Airport (RJAA) |
Arrival
| Time | N/A |
|---|---|
| Airport | Ninoy Aquino International Airport (RPLL) |
| Time | Latitude | Longitude | Altitude | Speed | Heading |
|---|---|---|---|---|---|
| 2026-05-07 06:22 | 35.76715 | 140.38313 | 151 ft | 0 kts | 103° |
| 2026-05-07 06:34 | 35.76716 | 140.38306 | 151 ft | 2 kts | 103° |
| 2026-05-07 06:34 | 35.76720 | 140.38287 | 151 ft | 2 kts | 103° |
| 2026-05-07 06:34 | 35.76723 | 140.38269 | 151 ft | 2 kts | 116° |
| 2026-05-07 06:35 | 35.76732 | 140.38254 | 150 ft | 2 kts | 134° |
| 2026-05-07 06:35 | 35.76743 | 140.38242 | 150 ft | 2 kts | 149° |
| 2026-05-07 06:35 | 35.76757 | 140.38234 | 150 ft | 2 kts | 165° |
| 2026-05-07 06:35 | 35.76772 | 140.38231 | 150 ft | 2 kts | 180° |
| 2026-05-07 06:36 | 35.76787 | 140.38234 | 150 ft | 2 kts | 197° |
| 2026-05-07 06:36 | 35.76796 | 140.38237 | 150 ft | 0 kts | 206° |
| 2026-05-07 06:36 | 35.76797 | 140.38238 | 150 ft | 0 kts | 206° |
| 2026-05-07 06:40 | 35.76791 | 140.38234 | 150 ft | 0 kts | 206° |
| 2026-05-07 06:41 | 35.76778 | 140.38226 | 150 ft | 4 kts | 206° |
| 2026-05-07 06:42 | 35.76730 | 140.38197 | 149 ft | 13 kts | 206° |
| 2026-05-07 06:42 | 35.76634 | 140.38136 | 147 ft | 17 kts | 208° |
| 2026-05-07 06:42 | 35.76523 | 140.38063 | 146 ft | 15 kts | 208° |
| 2026-05-07 06:42 | 35.76449 | 140.37973 | 145 ft | 15 kts | 238° |
| 2026-05-07 06:43 | 35.76408 | 140.37872 | 144 ft | 8 kts | 263° |
| 2026-05-07 06:43 | 35.76434 | 140.37819 | 143 ft | 8 kts | 319° |
| 2026-05-07 06:43 | 35.76494 | 140.37767 | 141 ft | 12 kts | 326° |
| 2026-05-07 06:43 | 35.76570 | 140.37707 | 139 ft | 13 kts | 331° |
| 2026-05-07 06:44 | 35.76658 | 140.37651 | 138 ft | 14 kts | 331° |
| 2026-05-07 06:44 | 35.76718 | 140.37607 | 138 ft | 15 kts | 329° |
| 2026-05-07 06:45 | 35.76781 | 140.37561 | 137 ft | 16 kts | 329° |
| 2026-05-07 06:46 | 35.77061 | 140.37358 | 134 ft | 21 kts | 328° |
| 2026-05-07 06:46 | 35.77494 | 140.36977 | 133 ft | 3 kts | 248° |
| 2026-05-07 06:46 | 35.77484 | 140.36949 | 133 ft | 3 kts | 245° |
| 2026-05-07 06:46 | 35.77483 | 140.36948 | 133 ft | 0 kts | 246° |
| 2026-05-07 06:47 | 35.77480 | 140.36940 | 133 ft | 1 kts | 246° |
| 2026-05-07 06:47 | 35.77461 | 140.36896 | 134 ft | 10 kts | 233° |
| 2026-05-07 06:47 | 35.77395 | 140.36871 | 135 ft | 9 kts | 168° |
| 2026-05-07 06:47 | 35.77350 | 140.36899 | 134 ft | 5 kts | 156° |
| 2026-05-07 06:48 | 35.77344 | 140.36902 | 134 ft | 1 kts | 156° |
| 2026-05-07 06:48 | 35.77204 | 140.36999 | 135 ft | 57 kts | 151° |
| 2026-05-07 06:48 | 35.76646 | 140.37401 | 136 ft | 125 kts | 150° |
| 2026-05-07 06:48 | 35.75734 | 140.38058 | 206 ft | 173 kts | 150° |
| 2026-05-07 06:49 | 35.74692 | 140.38805 | 888 ft | 174 kts | 150° |
| 2026-05-07 06:49 | 35.73680 | 140.39539 | 1697 ft | 172 kts | 151° |
| 2026-05-07 06:49 | 35.72640 | 140.40288 | 2248 ft | 177 kts | 151° |
| 2026-05-07 06:49 | 35.71531 | 140.41078 | 2550 ft | 192 kts | 150° |
| 2026-05-07 06:50 | 35.70345 | 140.41930 | 2959 ft | 201 kts | 151° |
| 2026-05-07 06:50 | 35.69135 | 140.42804 | 3475 ft | 203 kts | 151° |
| 2026-05-07 06:50 | 35.67891 | 140.43701 | 3820 ft | 216 kts | 151° |
| 2026-05-07 06:50 | 35.66547 | 140.44667 | 4136 ft | 234 kts | 150° |
| 2026-05-07 06:51 | 35.65597 | 140.45351 | 4356 ft | 246 kts | 151° |
| 2026-05-07 06:51 | 35.63545 | 140.46829 | 4847 ft | 267 kts | 151° |
| 2026-05-07 06:51 | 35.60296 | 140.49170 | 6144 ft | 275 kts | 151° |
| 2026-05-07 06:52 | 35.58629 | 140.50371 | 6786 ft | 278 kts | 151° |
| 2026-05-07 06:52 | 35.56978 | 140.51556 | 7413 ft | 281 kts | 151° |
| 2026-05-07 06:52 | 35.55270 | 140.52783 | 8065 ft | 284 kts | 151° |
| 2026-05-07 06:52 | 35.53575 | 140.53999 | 8706 ft | 286 kts | 151° |
| 2026-05-07 06:53 | 35.51847 | 140.55240 | 9289 ft | 290 kts | 151° |
| 2026-05-07 06:53 | 35.50140 | 140.56464 | 9888 ft | 293 kts | 151° |
| 2026-05-07 06:53 | 35.48378 | 140.57726 | 10413 ft | 300 kts | 151° |
| 2026-05-07 06:53 | 35.46544 | 140.59038 | 10694 ft | 315 kts | 151° |
| 2026-05-07 06:54 | 35.44600 | 140.60458 | 10967 ft | 331 kts | 147° |
| 2026-05-07 06:54 | 35.42784 | 140.62253 | 11228 ft | 348 kts | 136° |
| 2026-05-07 06:54 | 35.41190 | 140.64574 | 11502 ft | 363 kts | 126° |
| 2026-05-07 06:54 | 35.39743 | 140.67140 | 11977 ft | 371 kts | 125° |
| 2026-05-07 06:55 | 35.38285 | 140.69810 | 12609 ft | 374 kts | 125° |
| 2026-05-07 06:55 | 35.36839 | 140.72458 | 13199 ft | 378 kts | 125° |
| 2026-05-07 06:55 | 35.35378 | 140.75116 | 13758 ft | 382 kts | 126° |
| 2026-05-07 06:55 | 35.33880 | 140.77821 | 14317 ft | 387 kts | 126° |
| 2026-05-07 06:56 | 35.32349 | 140.80576 | 14876 ft | 391 kts | 126° |
| 2026-05-07 06:56 | 35.30825 | 140.83311 | 15420 ft | 395 kts | 126° |
| 2026-05-07 06:56 | 35.29257 | 140.86122 | 15968 ft | 399 kts | 126° |
| 2026-05-07 06:56 | 35.27680 | 140.88943 | 16509 ft | 404 kts | 126° |
| 2026-05-07 06:57 | 35.26097 | 140.91777 | 17034 ft | 408 kts | 127° |
| 2026-05-07 06:57 | 35.24490 | 140.94644 | 17555 ft | 412 kts | 128° |
| 2026-05-07 06:57 | 35.22562 | 140.97198 | 18041 ft | 410 kts | 147° |
| 2026-05-07 06:57 | 35.20063 | 140.98785 | 18556 ft | 403 kts | 168° |
| 2026-05-07 06:58 | 35.17339 | 140.99243 | 19077 ft | 395 kts | 187° |
| 2026-05-07 06:58 | 35.14702 | 140.98614 | 19581 ft | 388 kts | 205° |
| 2026-05-07 06:58 | 35.12274 | 140.97229 | 20094 ft | 388 kts | 211° |
| 2026-05-07 06:58 | 35.09839 | 140.95738 | 20579 ft | 391 kts | 211° |
| 2026-05-07 06:59 | 35.07412 | 140.94255 | 21047 ft | 395 kts | 211° |
| 2026-05-07 06:59 | 35.04937 | 140.92755 | 21522 ft | 398 kts | 211° |
| 2026-05-07 06:59 | 35.02458 | 140.91263 | 21988 ft | 400 kts | 211° |
| 2026-05-07 06:59 | 34.99969 | 140.89767 | 22470 ft | 402 kts | 211° |
| 2026-05-07 07:00 | 34.97477 | 140.88277 | 22960 ft | 403 kts | 210° |
| 2026-05-07 07:00 | 34.94927 | 140.86755 | 23447 ft | 404 kts | 210° |
| 2026-05-07 07:00 | 34.92411 | 140.85257 | 23900 ft | 406 kts | 210° |
| 2026-05-07 07:00 | 34.89890 | 140.83758 | 24325 ft | 407 kts | 209° |
| 2026-05-07 07:01 | 34.87323 | 140.82236 | 24738 ft | 409 kts | 209° |
| 2026-05-07 07:01 | 34.84781 | 140.80733 | 25114 ft | 412 kts | 209° |
| 2026-05-07 07:01 | 34.82190 | 140.79201 | 25477 ft | 415 kts | 209° |
| 2026-05-07 07:01 | 34.79611 | 140.77678 | 25832 ft | 417 kts | 210° |
| 2026-05-07 07:02 | 34.76982 | 140.76125 | 26177 ft | 420 kts | 210° |
| 2026-05-07 07:02 | 34.74362 | 140.74577 | 26509 ft | 422 kts | 210° |
| 2026-05-07 07:02 | 34.71726 | 140.73021 | 26827 ft | 425 kts | 210° |
| 2026-05-07 07:02 | 34.69064 | 140.71451 | 27150 ft | 427 kts | 210° |
| 2026-05-07 07:03 | 34.66394 | 140.69876 | 27460 ft | 429 kts | 210° |
| 2026-05-07 07:03 | 34.63685 | 140.68280 | 27764 ft | 432 kts | 210° |
| 2026-05-07 07:03 | 34.60982 | 140.66687 | 28049 ft | 434 kts | 210° |
| 2026-05-07 07:03 | 34.58276 | 140.65096 | 28332 ft | 437 kts | 210° |
| 2026-05-07 07:04 | 34.55528 | 140.63480 | 28638 ft | 440 kts | 210° |
| 2026-05-07 07:04 | 34.52777 | 140.61864 | 28939 ft | 442 kts | 210° |
| 2026-05-07 07:04 | 34.50006 | 140.60236 | 29205 ft | 444 kts | 211° |
| 2026-05-07 07:04 | 34.47227 | 140.58606 | 29467 ft | 446 kts | 211° |
| 2026-05-07 07:05 | 34.44414 | 140.56957 | 29723 ft | 449 kts | 211° |
| 2026-05-07 07:05 | 34.41616 | 140.55318 | 29956 ft | 451 kts | 211° |
| 2026-05-07 07:05 | 34.38809 | 140.53674 | 30227 ft | 452 kts | 211° |
| 2026-05-07 07:05 | 34.35979 | 140.52022 | 30584 ft | 452 kts | 211° |
| 2026-05-07 07:06 | 34.33165 | 140.50378 | 30947 ft | 451 kts | 211° |
| 2026-05-07 07:06 | 34.30358 | 140.48741 | 31269 ft | 451 kts | 211° |
| 2026-05-07 07:06 | 34.27504 | 140.47076 | 31572 ft | 451 kts | 211° |
| 2026-05-07 07:06 | 34.24691 | 140.45435 | 31868 ft | 451 kts | 211° |
| 2026-05-07 07:07 | 34.21900 | 140.43808 | 32150 ft | 451 kts | 212° |
| 2026-05-07 07:07 | 34.19049 | 140.42149 | 32436 ft | 451 kts | 212° |
| 2026-05-07 07:07 | 34.16226 | 140.40506 | 32709 ft | 452 kts | 212° |
| 2026-05-07 07:07 | 34.13431 | 140.38881 | 32979 ft | 452 kts | 212° |
| 2026-05-07 07:08 | 34.10576 | 140.37222 | 33251 ft | 452 kts | 212° |
| 2026-05-07 07:08 | 34.07768 | 140.35593 | 33516 ft | 452 kts | 212° |
| 2026-05-07 07:08 | 34.04948 | 140.33958 | 33765 ft | 452 kts | 211° |
| 2026-05-07 07:08 | 34.02127 | 140.32323 | 34008 ft | 453 kts | 212° |
| 2026-05-07 07:09 | 33.99295 | 140.30682 | 34256 ft | 453 kts | 211° |
| 2026-05-07 07:09 | 33.96457 | 140.29040 | 34532 ft | 453 kts | 211° |
| 2026-05-07 07:09 | 33.93626 | 140.27405 | 34803 ft | 452 kts | 212° |
| 2026-05-07 07:09 | 33.90775 | 140.25758 | 35083 ft | 452 kts | 212° |
| 2026-05-07 07:10 | 33.87946 | 140.24126 | 35349 ft | 451 kts | 212° |
| 2026-05-07 07:10 | 33.85141 | 140.22507 | 35612 ft | 450 kts | 212° |
| 2026-05-07 07:10 | 33.82327 | 140.20869 | 35851 ft | 449 kts | 212° |
| 2026-05-07 07:10 | 33.79535 | 140.19202 | 36064 ft | 448 kts | 212° |
| 2026-05-07 07:11 | 33.76765 | 140.17537 | 36248 ft | 449 kts | 213° |
| 2026-05-07 07:11 | 33.73968 | 140.15857 | 36413 ft | 450 kts | 212° |
| 2026-05-07 07:11 | 33.71173 | 140.14183 | 36568 ft | 451 kts | 212° |
| 2026-05-07 07:11 | 33.68399 | 140.12524 | 36728 ft | 452 kts | 212° |
| 2026-05-07 07:12 | 33.65562 | 140.10832 | 36896 ft | 452 kts | 212° |
| 2026-05-07 07:12 | 33.62756 | 140.09161 | 37041 ft | 453 kts | 212° |
| 2026-05-07 07:12 | 33.59942 | 140.07487 | 37161 ft | 454 kts | 212° |
| 2026-05-07 07:12 | 33.57103 | 140.05798 | 37303 ft | 455 kts | 212° |
| 2026-05-07 07:13 | 33.54285 | 140.04126 | 37448 ft | 456 kts | 212° |
| 2026-05-07 07:13 | 33.51435 | 140.02434 | 37583 ft | 456 kts | 212° |
| 2026-05-07 07:13 | 33.48586 | 140.00745 | 37715 ft | 457 kts | 212° |
| 2026-05-07 07:13 | 33.45726 | 139.99049 | 37834 ft | 458 kts | 212° |
| 2026-05-07 07:14 | 33.40048 | 139.95688 | 37918 ft | 460 kts | 212° |
| 2026-05-07 07:14 | 33.34296 | 139.92290 | 37922 ft | 460 kts | 212° |
| 2026-05-07 07:15 | 33.28572 | 139.88915 | 37923 ft | 460 kts | 212° |
| 2026-05-07 07:15 | 33.22873 | 139.85556 | 37922 ft | 460 kts | 212° |
| 2026-05-07 07:16 | 33.17269 | 139.81941 | 37921 ft | 454 kts | 219° |
| 2026-05-07 07:16 | 33.12333 | 139.77399 | 37923 ft | 446 kts | 229° |
| 2026-05-07 07:17 | 33.08161 | 139.71979 | 37922 ft | 441 kts | 238° |
| 2026-05-07 07:17 | 33.04782 | 139.65936 | 37922 ft | 440 kts | 243° |
| 2026-05-07 07:18 | 33.01556 | 139.59679 | 37922 ft | 443 kts | 243° |
| 2026-05-07 07:18 | 32.98338 | 139.53444 | 37923 ft | 446 kts | 243° |
| 2026-05-07 07:19 | 32.95095 | 139.47182 | 37921 ft | 448 kts | 242° |
| 2026-05-07 07:19 | 32.91816 | 139.40868 | 37923 ft | 449 kts | 242° |
| 2026-05-07 07:20 | 32.88518 | 139.34534 | 37922 ft | 449 kts | 242° |
| 2026-05-07 07:20 | 32.85241 | 139.28245 | 37922 ft | 449 kts | 242° |
| 2026-05-07 07:21 | 32.81947 | 139.21935 | 37922 ft | 450 kts | 242° |
| 2026-05-07 07:21 | 32.78663 | 139.15655 | 37922 ft | 449 kts | 242° |
| 2026-05-07 07:22 | 32.75368 | 139.09363 | 37923 ft | 447 kts | 242° |
| 2026-05-07 07:22 | 32.72094 | 139.03124 | 37923 ft | 446 kts | 242° |
| 2026-05-07 07:23 | 32.68832 | 138.96918 | 37922 ft | 444 kts | 242° |
| 2026-05-07 07:23 | 32.65566 | 138.90714 | 37923 ft | 444 kts | 242° |
| 2026-05-07 07:24 | 32.62298 | 138.84518 | 37926 ft | 444 kts | 242° |
| 2026-05-07 07:24 | 32.59022 | 138.78316 | 37931 ft | 444 kts | 242° |
| 2026-05-07 07:25 | 32.54112 | 138.69041 | 37941 ft | 444 kts | 242° |
| 2026-05-07 07:26 | 32.50837 | 138.62866 | 37945 ft | 444 kts | 242° |
| 2026-05-07 07:26 | 32.47568 | 138.56714 | 37948 ft | 444 kts | 242° |
| 2026-05-07 07:27 | 32.44276 | 138.50526 | 37948 ft | 444 kts | 242° |
| 2026-05-07 07:27 | 32.40994 | 138.44369 | 37949 ft | 444 kts | 242° |
| 2026-05-07 07:28 | 32.37694 | 138.38190 | 37948 ft | 444 kts | 242° |
| 2026-05-07 07:28 | 32.34390 | 138.32011 | 37943 ft | 444 kts | 241° |
| 2026-05-07 07:29 | 32.31110 | 138.25888 | 37948 ft | 444 kts | 241° |
| 2026-05-07 07:29 | 32.27819 | 138.19756 | 37949 ft | 444 kts | 241° |
| 2026-05-07 07:30 | 32.24507 | 138.13591 | 37949 ft | 444 kts | 241° |
| 2026-05-07 07:30 | 32.21220 | 138.07486 | 37949 ft | 444 kts | 241° |
| 2026-05-07 07:31 | 32.17899 | 138.01326 | 37949 ft | 444 kts | 241° |
| 2026-05-07 07:31 | 32.14598 | 137.95210 | 37950 ft | 444 kts | 241° |
| 2026-05-07 07:32 | 32.11278 | 137.89073 | 37949 ft | 444 kts | 241° |
| 2026-05-07 07:32 | 32.07956 | 137.82942 | 37948 ft | 444 kts | 241° |
| 2026-05-07 07:33 | 32.04657 | 137.76863 | 37949 ft | 444 kts | 241° |
| 2026-05-07 07:33 | 32.01321 | 137.70723 | 37948 ft | 444 kts | 241° |
| 2026-05-07 07:34 | 31.97998 | 137.64621 | 37949 ft | 443 kts | 241° |
| 2026-05-07 07:34 | 31.94687 | 137.58548 | 37949 ft | 444 kts | 241° |
| 2026-05-07 07:35 | 31.91355 | 137.52446 | 37949 ft | 444 kts | 241° |
| 2026-05-07 07:35 | 31.88005 | 137.46324 | 37948 ft | 444 kts | 241° |
| 2026-05-07 07:36 | 31.84674 | 137.40243 | 37948 ft | 444 kts | 241° |
| 2026-05-07 07:36 | 31.81339 | 137.34168 | 37949 ft | 444 kts | 240° |
| 2026-05-07 07:37 | 31.77982 | 137.28061 | 37949 ft | 444 kts | 240° |
| 2026-05-07 07:37 | 31.74643 | 137.21994 | 37949 ft | 444 kts | 240° |
| 2026-05-07 07:38 | 31.71312 | 137.15955 | 37949 ft | 444 kts | 240° |
| 2026-05-07 07:38 | 31.67956 | 137.09878 | 37948 ft | 444 kts | 240° |
| 2026-05-07 07:39 | 31.64594 | 137.03801 | 37948 ft | 444 kts | 240° |
| 2026-05-07 07:39 | 31.61236 | 136.97740 | 37949 ft | 444 kts | 240° |
| 2026-05-07 07:40 | 31.57872 | 136.91676 | 37948 ft | 444 kts | 240° |
| 2026-05-07 07:40 | 31.54509 | 136.85631 | 37949 ft | 444 kts | 240° |
| 2026-05-07 07:41 | 31.51129 | 136.79561 | 37949 ft | 444 kts | 240° |
| 2026-05-07 07:41 | 31.47767 | 136.73538 | 37949 ft | 444 kts | 240° |
| 2026-05-07 07:42 | 31.44127 | 136.67668 | 37949 ft | 447 kts | 234° |
| 2026-05-07 07:42 | 31.39963 | 136.62257 | 37949 ft | 450 kts | 229° |
| 2026-05-07 07:43 | 31.35334 | 136.57327 | 37949 ft | 452 kts | 225° |
| 2026-05-07 07:43 | 31.30614 | 136.52521 | 37948 ft | 452 kts | 225° |
| 2026-05-07 07:44 | 31.25908 | 136.47733 | 37949 ft | 452 kts | 225° |
| 2026-05-07 07:44 | 31.21154 | 136.42899 | 37949 ft | 452 kts | 225° |
| 2026-05-07 07:45 | 31.16422 | 136.38094 | 37950 ft | 452 kts | 225° |
| 2026-05-07 07:45 | 31.11703 | 136.33307 | 37951 ft | 452 kts | 224° |
| 2026-05-07 07:46 | 31.06947 | 136.28491 | 37949 ft | 452 kts | 224° |
| 2026-05-07 07:46 | 31.02233 | 136.23723 | 37949 ft | 452 kts | 224° |
| 2026-05-07 07:47 | 30.97494 | 136.18933 | 37948 ft | 452 kts | 224° |
| 2026-05-07 07:47 | 30.92723 | 136.14117 | 37948 ft | 453 kts | 224° |
| 2026-05-07 07:48 | 30.87978 | 136.09337 | 37948 ft | 453 kts | 224° |
| 2026-05-07 07:48 | 30.83216 | 136.04550 | 37949 ft | 453 kts | 224° |
| 2026-05-07 07:49 | 30.78459 | 135.99773 | 37949 ft | 453 kts | 224° |
| 2026-05-07 07:49 | 30.73701 | 135.95000 | 37949 ft | 453 kts | 224° |
| 2026-05-07 07:50 | 30.68954 | 135.90245 | 37949 ft | 453 kts | 224° |
| 2026-05-07 07:50 | 30.64197 | 135.85486 | 37949 ft | 453 kts | 224° |
| 2026-05-07 07:51 | 30.59415 | 135.80707 | 37949 ft | 453 kts | 224° |
| 2026-05-07 07:51 | 30.54652 | 135.75955 | 37949 ft | 453 kts | 224° |
| 2026-05-07 07:52 | 30.49883 | 135.71202 | 37949 ft | 453 kts | 224° |
| 2026-05-07 07:52 | 30.45127 | 135.66469 | 37949 ft | 453 kts | 224° |
| 2026-05-07 07:53 | 30.40329 | 135.61702 | 37949 ft | 453 kts | 224° |
| 2026-05-07 07:53 | 30.35567 | 135.56975 | 37949 ft | 453 kts | 224° |
| 2026-05-07 07:54 | 30.30791 | 135.52241 | 37949 ft | 453 kts | 224° |
| 2026-05-07 07:54 | 30.25989 | 135.47490 | 37949 ft | 453 kts | 224° |
| 2026-05-07 07:55 | 30.21230 | 135.42787 | 37949 ft | 453 kts | 224° |
| 2026-05-07 07:55 | 30.16447 | 135.38066 | 37949 ft | 453 kts | 224° |
| 2026-05-07 07:56 | 30.11674 | 135.33354 | 37950 ft | 453 kts | 224° |
| 2026-05-07 07:56 | 30.06933 | 135.28560 | 37949 ft | 453 kts | 224° |
| 2026-05-07 07:57 | 30.02200 | 135.23764 | 37949 ft | 453 kts | 224° |
| 2026-05-07 07:57 | 29.97472 | 135.18988 | 37949 ft | 453 kts | 224° |
| 2026-05-07 07:58 | 29.92736 | 135.14215 | 37949 ft | 453 kts | 224° |
| 2026-05-07 07:58 | 29.88007 | 135.09456 | 37948 ft | 453 kts | 224° |
| 2026-05-07 07:59 | 29.83257 | 135.04683 | 37949 ft | 454 kts | 224° |
| 2026-05-07 07:59 | 29.78526 | 134.99936 | 37949 ft | 454 kts | 224° |
| 2026-05-07 08:00 | 29.73783 | 134.95183 | 37949 ft | 454 kts | 224° |
| 2026-05-07 08:00 | 29.69023 | 134.90418 | 37951 ft | 455 kts | 224° |
| 2026-05-07 08:01 | 29.64257 | 134.85654 | 37956 ft | 455 kts | 224° |
| 2026-05-07 08:01 | 29.59495 | 134.80901 | 37964 ft | 455 kts | 224° |
| 2026-05-07 08:02 | 29.54701 | 134.76121 | 37970 ft | 455 kts | 224° |
| 2026-05-07 08:02 | 29.49933 | 134.71374 | 37973 ft | 455 kts | 224° |
| 2026-05-07 08:03 | 29.45158 | 134.66628 | 37975 ft | 455 kts | 224° |
| 2026-05-07 08:03 | 29.40397 | 134.61899 | 37975 ft | 455 kts | 224° |
| 2026-05-07 08:04 | 29.35608 | 134.57150 | 37975 ft | 455 kts | 224° |
| 2026-05-07 08:04 | 29.30836 | 134.52423 | 37975 ft | 455 kts | 224° |
| 2026-05-07 08:05 | 29.26076 | 134.47714 | 37976 ft | 455 kts | 224° |
| 2026-05-07 08:05 | 29.21274 | 134.42970 | 37975 ft | 455 kts | 224° |
| 2026-05-07 08:06 | 29.16499 | 134.38258 | 37976 ft | 455 kts | 224° |
| 2026-05-07 08:06 | 29.11699 | 134.33528 | 37977 ft | 455 kts | 223° |
| 2026-05-07 08:07 | 29.06914 | 134.28818 | 37976 ft | 455 kts | 223° |
| 2026-05-07 08:07 | 29.02127 | 134.24112 | 37976 ft | 453 kts | 223° |
| 2026-05-07 08:08 | 28.97391 | 134.19463 | 37975 ft | 452 kts | 223° |
| 2026-05-07 08:08 | 28.92619 | 134.14784 | 37975 ft | 451 kts | 223° |
| 2026-05-07 08:09 | 28.87880 | 134.10147 | 37975 ft | 451 kts | 223° |
| 2026-05-07 08:09 | 28.83132 | 134.05504 | 37975 ft | 451 kts | 223° |
| 2026-05-07 08:10 | 28.78360 | 134.00842 | 37975 ft | 451 kts | 223° |
| 2026-05-07 08:10 | 28.73596 | 133.96196 | 37975 ft | 451 kts | 223° |
| 2026-05-07 08:11 | 28.68842 | 133.91565 | 37975 ft | 451 kts | 223° |
| 2026-05-07 08:11 | 28.64064 | 133.86917 | 37975 ft | 451 kts | 223° |
| 2026-05-07 08:12 | 28.59311 | 133.82300 | 37975 ft | 452 kts | 223° |
| 2026-05-07 08:12 | 28.54535 | 133.77661 | 37975 ft | 451 kts | 223° |
| 2026-05-07 08:13 | 28.49786 | 133.73056 | 37975 ft | 451 kts | 223° |
| 2026-05-07 08:13 | 28.45029 | 133.68451 | 37975 ft | 451 kts | 223° |
| 2026-05-07 08:14 | 28.40248 | 133.63827 | 37975 ft | 451 kts | 223° |
| 2026-05-07 08:14 | 28.35493 | 133.59236 | 37975 ft | 451 kts | 223° |